createdAt,value
2023-05-09T03:43:27.702Z,101198.31
2023-05-09T03:46:31.457Z,101198.31
2023-05-09T03:49:34.293Z,101212.28
2023-05-09T03:52:37.416Z,101215.66
2023-05-09T03:55:40.976Z,101210.34
2023-05-09T03:58:44.314Z,101204.94
2023-05-09T04:01:47.200Z,101215.16
2023-05-09T04:04:50.201Z,101206.84
2023-05-09T04:07:53.776Z,101205.81
2023-05-09T04:10:57.444Z,101205.63
2023-05-09T04:14:00.160Z,101207.19
2023-05-09T04:17:03.561Z,101200.03
2023-05-09T04:20:08.323Z,101209.34
2023-05-09T04:23:11.369Z,101203.06
2023-05-09T04:26:15.591Z,101204.47
2023-05-09T04:29:19.000Z,101202.63
2023-05-09T04:32:23.342Z,101213.66
2023-05-09T04:35:27.245Z,101211.62
2023-05-09T04:38:30.075Z,101212.13
2023-05-09T04:41:33.212Z,101208.41
2023-05-09T04:44:36.123Z,101211.72
2023-05-09T04:47:39.758Z,101219.28
2023-05-09T04:50:42.496Z,101225.28
2023-05-09T04:53:45.668Z,101220.81
2023-05-09T04:56:50.128Z,101213.50
2023-05-09T04:59:54.013Z,101211.47
2023-05-09T05:02:56.918Z,101212.00
2023-05-09T05:06:00.791Z,101209.28
2023-05-09T05:09:03.725Z,101218.41
2023-05-09T05:12:09.624Z,101220.75
2023-05-09T05:15:13.866Z,101218.84
2023-05-09T05:18:18.293Z,101220.28
2023-05-09T05:21:23.732Z,101229.38
2023-05-09T05:24:29.464Z,101226.34
2023-05-09T05:27:32.241Z,101219.94
2023-05-09T05:30:35.392Z,101223.03
2023-05-09T05:33:38.011Z,101221.75
2023-05-09T05:36:41.292Z,101227.69
2023-05-09T05:39:44.506Z,101221.03
2023-05-09T05:42:47.962Z,101214.66
2023-05-09T05:45:51.238Z,101214.03
2023-05-09T05:48:57.588Z,101208.22
2023-05-09T05:52:00.626Z,101212.03
2023-05-09T05:55:03.969Z,101213.37
2023-05-09T05:58:06.954Z,101215.53
2023-05-09T06:01:10.894Z,101214.09
2023-05-09T06:04:13.898Z,101213.97
2023-05-09T06:07:17.859Z,101210.97
2023-05-09T06:10:22.307Z,101219.50
2023-05-09T06:13:24.962Z,101217.28
2023-05-09T06:16:28.274Z,101225.66
2023-05-09T06:19:30.902Z,101225.78
2023-05-09T06:22:34.564Z,101223.47
2023-05-09T06:25:37.284Z,101218.09
2023-05-09T06:28:40.219Z,101220.78
2023-05-09T06:31:42.882Z,101218.50
2023-05-09T06:34:45.769Z,101212.41
2023-05-09T06:37:49.180Z,101208.47
2023-05-09T06:40:52.332Z,101213.31
2023-05-09T06:43:55.009Z,101210.00
2023-05-09T06:46:57.858Z,101205.28
2023-05-09T06:50:00.723Z,101206.22
2023-05-09T06:53:03.607Z,101205.88
2023-05-09T06:56:06.606Z,101204.88
2023-05-09T06:59:13.253Z,101201.31
2023-05-09T07:02:16.327Z,101196.72
2023-05-09T07:05:19.509Z,101194.13
2023-05-09T07:08:22.123Z,101189.69
2023-05-09T07:11:24.942Z,101187.62
2023-05-09T07:14:27.537Z,101189.19
2023-05-09T07:17:30.466Z,101197.81
2023-05-09T07:20:33.934Z,101179.19
2023-05-09T07:23:36.913Z,101181.75
2023-05-09T07:26:39.578Z,101171.44
2023-05-09T07:29:42.531Z,101172.41
2023-05-09T07:32:45.224Z,101168.41
2023-05-09T07:35:53.019Z,101164.38
2023-05-09T07:38:55.854Z,101162.59
2023-05-09T07:41:58.893Z,101163.63
2023-05-09T07:45:01.493Z,101164.25
2023-05-09T07:48:06.791Z,101156.88
2023-05-09T07:51:09.405Z,101154.38
2023-05-09T07:54:15.013Z,101146.50
2023-05-09T07:57:17.996Z,101140.16
2023-05-09T08:00:23.921Z,101139.81
2023-05-09T08:03:26.902Z,101139.63
2023-05-09T08:06:29.980Z,101135.37
2023-05-09T08:09:33.150Z,101125.16
2023-05-09T08:12:35.849Z,101121.41
2023-05-09T08:15:38.728Z,101130.53
2023-05-09T08:18:41.276Z,101118.81
2023-05-09T08:21:47.217Z,101123.09
2023-05-09T08:24:49.901Z,101123.41
2023-05-09T08:27:54.974Z,101121.59
2023-05-09T08:30:57.908Z,101118.16
2023-05-09T08:34:01.141Z,101120.56
2023-05-09T08:37:04.624Z,101119.59
2023-05-09T08:40:08.208Z,101114.41
2023-05-09T08:43:12.410Z,101115.31
2023-05-09T08:46:17.130Z,101108.75
2023-05-09T08:49:22.021Z,101104.97
2023-05-09T08:52:25.014Z,101110.12
2023-05-09T08:55:28.657Z,101107.03
2023-05-09T08:58:33.973Z,101100.94
2023-05-09T09:01:36.898Z,101095.44
2023-05-09T09:04:40.092Z,101088.06
2023-05-09T09:07:43.017Z,101103.31
2023-05-09T09:10:49.823Z,101083.75
2023-05-09T09:13:54.227Z,101086.97
2023-05-09T09:17:00.573Z,101079.66
2023-05-09T09:20:05.903Z,101082.59
2023-05-09T09:23:16.822Z,101075.38
2023-05-09T09:26:19.498Z,101075.78
2023-05-09T09:29:23.040Z,101076.47
2023-05-09T09:32:34.108Z,101075.59
2023-05-09T09:36:17.417Z,101082.66
2023-05-09T09:39:21.751Z,101078.13
2023-05-09T09:42:24.674Z,101083.38
2023-05-09T09:45:27.868Z,101073.38
2023-05-09T09:48:37.869Z,101083.28
2023-05-09T09:51:44.250Z,101074.31
2023-05-09T09:54:47.758Z,101079.62
2023-05-09T09:57:51.444Z,101079.03
2023-05-09T10:01:13.816Z,101078.41
2023-05-09T10:04:18.043Z,101074.78
2023-05-09T10:07:25.936Z,101073.31
2023-05-09T10:10:34.395Z,101061.28
2023-05-09T10:13:38.494Z,101062.88
2023-05-09T10:16:44.614Z,101062.97
2023-05-09T10:19:50.522Z,101055.88
2023-05-09T10:22:56.296Z,101050.22
2023-05-09T10:26:09.459Z,101056.38
2023-05-09T10:29:12.948Z,101049.06
2023-05-09T10:32:23.446Z,101056.50
2023-05-09T10:35:29.921Z,101050.06
2023-05-09T10:38:32.539Z,101055.09
2023-05-09T10:41:37.025Z,101048.16
2023-05-09T10:44:39.867Z,101037.22
2023-05-09T10:47:44.448Z,101044.13
2023-05-09T10:50:48.218Z,101047.75
2023-05-09T10:53:51.603Z,101041.94
2023-05-09T10:56:54.818Z,101049.03
2023-05-09T11:00:00.241Z,101044.50
2023-05-09T11:03:08.253Z,101047.19
2023-05-09T11:06:39.927Z,101047.66
2023-05-09T11:10:08.240Z,101040.69
2023-05-09T11:13:11.171Z,101044.94
2023-05-09T11:16:14.006Z,101042.41
2023-05-09T11:19:37.702Z,101027.94
2023-05-09T11:22:42.728Z,101020.59
2023-05-09T11:25:47.763Z,101017.97
2023-05-09T11:28:56.534Z,101002.69
2023-05-09T11:32:07.869Z,101020.78
2023-05-09T11:35:17.004Z,101010.66
2023-05-09T11:38:22.015Z,101004.34
2023-05-09T11:41:27.879Z,101007.72
2023-05-09T11:44:35.353Z,101009.78
2023-05-09T11:47:38.576Z,101006.25
2023-05-09T11:50:41.900Z,100992.19
2023-05-09T11:53:51.425Z,100991.00
2023-05-09T11:56:54.398Z,100990.78
2023-05-09T11:59:57.480Z,100996.75
2023-05-09T12:03:01.092Z,100987.69
2023-05-09T12:06:04.197Z,100984.22
2023-05-09T12:09:09.416Z,100975.53
2023-05-09T12:12:13.735Z,100976.00
2023-05-09T12:15:17.663Z,100965.06
2023-05-09T12:18:20.862Z,100967.75
2023-05-09T12:21:23.567Z,100968.87
2023-05-09T12:24:28.260Z,100962.25
2023-05-09T12:27:33.088Z,100958.03
2023-05-09T12:30:36.846Z,100949.97
2023-05-09T12:33:39.820Z,100951.78
2023-05-09T12:36:50.816Z,100945.19
2023-05-09T12:40:15.410Z,100943.38
2023-05-09T12:43:18.871Z,100943.56
2023-05-09T12:46:22.101Z,100951.09
2023-05-09T12:49:26.181Z,100938.69
2023-05-09T12:52:46.923Z,100923.72
2023-05-09T12:56:01.383Z,100924.97
2023-05-09T12:59:04.024Z,100902.63
2023-05-09T13:02:07.807Z,100900.31
2023-05-09T13:05:11.583Z,100891.72
2023-05-09T13:08:14.532Z,100900.28
2023-05-09T13:11:19.248Z,100878.78
2023-05-09T13:14:23.215Z,100886.88
2023-05-09T13:17:26.047Z,100880.56
2023-05-09T13:20:29.196Z,100879.75
2023-05-09T13:23:31.858Z,100876.78
2023-05-09T13:26:34.943Z,100870.97
2023-05-09T13:29:37.532Z,100871.37
2023-05-09T13:32:41.257Z,100873.59
2023-05-09T13:35:43.968Z,100873.53
2023-05-09T13:38:47.104Z,100863.59
2023-05-09T13:41:52.872Z,100867.81
2023-05-09T13:44:55.866Z,100866.34
2023-05-09T13:47:58.602Z,100859.75
2023-05-09T13:51:06.307Z,100861.88
2023-05-09T13:54:15.016Z,100850.19
2023-05-09T13:57:18.070Z,100848.19
2023-05-09T14:00:21.604Z,100856.22
2023-05-09T14:03:24.650Z,100836.87
2023-05-09T14:06:29.064Z,100830.28
2023-05-09T14:09:38.579Z,100829.28
2023-05-09T14:12:44.375Z,100822.66
2023-05-09T14:15:48.295Z,100822.81
2023-05-09T14:18:50.977Z,100820.72
2023-05-09T14:21:53.998Z,100812.72
2023-05-09T14:24:57.515Z,100819.00
2023-05-09T14:28:00.657Z,100816.75
2023-05-09T14:31:03.602Z,100816.75
2023-05-09T14:34:06.645Z,100820.22
2023-05-09T14:37:13.737Z,100822.69
2023-05-09T14:40:17.247Z,100826.09
2023-05-09T14:43:21.601Z,100817.59
2023-05-09T14:46:24.993Z,100810.00
2023-05-09T14:49:27.955Z,100807.91
2023-05-09T14:52:31.068Z,100802.53
2023-05-09T14:55:33.825Z,100801.88
2023-05-09T14:58:37.019Z,100799.09
2023-05-09T15:01:39.896Z,100798.50
2023-05-09T15:04:43.902Z,100804.94
2023-05-09T15:07:46.593Z,100801.06
2023-05-09T15:10:50.852Z,100796.56
2023-05-09T15:13:54.001Z,100781.47
2023-05-09T15:17:01.367Z,100780.53
2023-05-09T15:20:04.606Z,100773.75
2023-05-09T15:23:08.047Z,100775.41
2023-05-09T15:26:12.382Z,100771.94
